sensor_id;sensor_type;location;lat;lon;timestamp;P1;durP1;ratioP1;P2;durP2;ratioP2
33160;SDS011;19522;45.656;11.302;2023-08-01T00:01:30;2.63;;;1.85;;
33160;SDS011;19522;45.656;11.302;2023-08-01T00:03:56;3.83;;;1.85;;
33160;SDS011;19522;45.656;11.302;2023-08-01T00:06:22;2.75;;;1.95;;
33160;SDS011;19522;45.656;11.302;2023-08-01T00:08:49;3.90;;;2.10;;
33160;SDS011;19522;45.656;11.302;2023-08-01T00:11:14;3.63;;;1.75;;
33160;SDS011;19522;45.656;11.302;2023-08-01T00:13:41;3.60;;;2.05;;
33160;SDS011;19522;45.656;11.302;2023-08-01T00:16:09;3.42;;;2.05;;
33160;SDS011;19522;45.656;11.302;2023-08-01T00:18:35;3.53;;;2.00;;
33160;SDS011;19522;45.656;11.302;2023-08-01T00:21:00;2.75;;;1.85;;
33160;SDS011;19522;45.656;11.302;2023-08-01T00:23:26;4.47;;;1.92;;
33160;SDS011;19522;45.656;11.302;2023-08-01T00:25:52;3.58;;;1.98;;
33160;SDS011;19522;45.656;11.302;2023-08-01T00:28:18;2.83;;;1.88;;
33160;SDS011;19522;45.656;11.302;2023-08-01T00:30:44;4.60;;;2.25;;
33160;SDS011;19522;45.656;11.302;2023-08-01T00:33:09;3.17;;;1.77;;
33160;SDS011;19522;45.656;11.302;2023-08-01T00:35:35;2.65;;;2.00;;
33160;SDS011;19522;45.656;11.302;2023-08-01T00:38:00;4.60;;;1.92;;
33160;SDS011;19522;45.656;11.302;2023-08-01T00:40:32;4.05;;;1.98;;
33160;SDS011;19522;45.656;11.302;2023-08-01T00:42:59;3.17;;;1.77;;
33160;SDS011;19522;45.656;11.302;2023-08-01T00:45:28;3.13;;;1.77;;
33160;SDS011;19522;45.656;11.302;2023-08-01T00:47:55;3.50;;;2.13;;
33160;SDS011;19522;45.656;11.302;2023-08-01T00:50:21;2.90;;;1.90;;
33160;SDS011;19522;45.656;11.302;2023-08-01T00:52:47;2.90;;;2.05;;
33160;SDS011;19522;45.656;11.302;2023-08-01T00:55:15;4.20;;;2.00;;
33160;SDS011;19522;45.656;11.302;2023-08-01T00:57:41;4.45;;;2.13;;
33160;SDS011;19522;45.656;11.302;2023-08-01T01:00:08;3.25;;;1.88;;
33160;SDS011;19522;45.656;11.302;2023-08-01T01:02:34;6.30;;;2.00;;
33160;SDS011;19522;45.656;11.302;2023-08-01T01:05:01;3.13;;;2.03;;
33160;SDS011;19522;45.656;11.302;2023-08-01T01:07:28;3.03;;;1.75;;
33160;SDS011;19522;45.656;11.302;2023-08-01T01:09:54;2.80;;;1.92;;
33160;SDS011;19522;45.656;11.302;2023-08-01T01:12:20;3.55;;;1.83;;
33160;SDS011;19522;45.656;11.302;2023-08-01T01:14:45;3.90;;;2.30;;
33160;SDS011;19522;45.656;11.302;2023-08-01T01:17:11;3.38;;;1.77;;
33160;SDS011;19522;45.656;11.302;2023-08-01T01:19:37;3.55;;;1.98;;
33160;SDS011;19522;45.656;11.302;2023-08-01T01:22:04;2.72;;;1.92;;
33160;SDS011;19522;45.656;11.302;2023-08-01T01:24:31;3.53;;;2.63;;
33160;SDS011;19522;45.656;11.302;2023-08-01T01:26:58;2.88;;;1.92;;
33160;SDS011;19522;45.656;11.302;2023-08-01T01:29:25;4.40;;;1.88;;
33160;SDS011;19522;45.656;11.302;2023-08-01T01:31:52;5.03;;;2.00;;
33160;SDS011;19522;45.656;11.302;2023-08-01T01:34:18;2.67;;;1.85;;
33160;SDS011;19522;45.656;11.302;2023-08-01T01:36:44;4.57;;;1.83;;
33160;SDS011;19522;45.656;11.302;2023-08-01T01:39:13;4.90;;;1.95;;
33160;SDS011;19522;45.656;11.302;2023-08-01T01:41:38;2.80;;;1.80;;
33160;SDS011;19522;45.656;11.302;2023-08-01T01:44:04;3.58;;;1.65;;
33160;SDS011;19522;45.656;11.302;2023-08-01T01:46:30;2.38;;;1.98;;
33160;SDS011;19522;45.656;11.302;2023-08-01T01:48:55;3.50;;;2.10;;
33160;SDS011;19522;45.656;11.302;2023-08-01T01:51:22;3.25;;;2.10;;
33160;SDS011;19522;45.656;11.302;2023-08-01T01:53:48;3.40;;;2.10;;
33160;SDS011;19522;45.656;11.302;2023-08-01T01:56:13;2.80;;;1.95;;
33160;SDS011;19522;45.656;11.302;2023-08-01T01:58:39;4.10;;;1.90;;
33160;SDS011;19522;45.656;11.302;2023-08-01T02:01:04;2.42;;;1.60;;
33160;SDS011;19522;45.656;11.302;2023-08-01T02:03:30;2.58;;;1.70;;
33160;SDS011;19522;45.656;11.302;2023-08-01T02:05:55;3.92;;;2.22;;
33160;SDS011;19522;45.656;11.302;2023-08-01T02:08:21;5.50;;;2.20;;
33160;SDS011;19522;45.656;11.302;2023-08-01T02:10:47;2.22;;;1.65;;
33160;SDS011;19522;45.656;11.302;2023-08-01T02:13:13;3.65;;;2.00;;
33160;SDS011;19522;45.656;11.302;2023-08-01T02:15:38;4.68;;;1.95;;
33160;SDS011;19522;45.656;11.302;2023-08-01T02:18:04;4.93;;;1.80;;
33160;SDS011;19522;45.656;11.302;2023-08-01T02:20:30;2.63;;;2.00;;
33160;SDS011;19522;45.656;11.302;2023-08-01T02:22:55;2.92;;;2.00;;
33160;SDS011;19522;45.656;11.302;2023-08-01T02:25:21;2.70;;;1.73;;
33160;SDS011;19522;45.656;11.302;2023-08-01T02:27:46;2.55;;;2.00;;
33160;SDS011;19522;45.656;11.302;2023-08-01T02:30:12;2.83;;;1.70;;
33160;SDS011;19522;45.656;11.302;2023-08-01T02:32:37;5.75;;;2.17;;
33160;SDS011;19522;45.656;11.302;2023-08-01T02:35:03;3.40;;;1.65;;
33160;SDS011;19522;45.656;11.302;2023-08-01T02:37:31;3.58;;;1.73;;
33160;SDS011;19522;45.656;11.302;2023-08-01T02:39:57;4.47;;;1.85;;
33160;SDS011;19522;45.656;11.302;2023-08-01T02:42:22;3.03;;;1.90;;
33160;SDS011;19522;45.656;11.302;2023-08-01T02:44:48;4.70;;;1.98;;
33160;SDS011;19522;45.656;11.302;2023-08-01T02:47:13;2.75;;;1.80;;
33160;SDS011;19522;45.656;11.302;2023-08-01T02:49:39;2.33;;;1.52;;
33160;SDS011;19522;45.656;11.302;2023-08-01T02:52:04;2.85;;;2.00;;
33160;SDS011;19522;45.656;11.302;2023-08-01T02:54:30;4.78;;;1.75;;
33160;SDS011;19522;45.656;11.302;2023-08-01T02:56:55;3.33;;;1.95;;
33160;SDS011;19522;45.656;11.302;2023-08-01T02:59:21;3.95;;;1.85;;
33160;SDS011;19522;45.656;11.302;2023-08-01T03:01:46;2.67;;;1.67;;
33160;SDS011;19522;45.656;11.302;2023-08-01T03:04:12;2.53;;;1.63;;
33160;SDS011;19522;45.656;11.302;2023-08-01T03:06:37;3.15;;;1.92;;
33160;SDS011;19522;45.656;11.302;2023-08-01T03:09:03;3.15;;;2.17;;
33160;SDS011;19522;45.656;11.302;2023-08-01T03:11:33;2.97;;;2.00;;
33160;SDS011;19522;45.656;11.302;2023-08-01T03:14:00;3.85;;;1.75;;
33160;SDS011;19522;45.656;11.302;2023-08-01T03:16:26;4.38;;;1.98;;
33160;SDS011;19522;45.656;11.302;2023-08-01T03:18:51;3.53;;;2.13;;
33160;SDS011;19522;45.656;11.302;2023-08-01T03:21:17;3.65;;;2.22;;
33160;SDS011;19522;45.656;11.302;2023-08-01T03:23:43;2.40;;;1.75;;
33160;SDS011;19522;45.656;11.302;2023-08-01T03:26:08;3.88;;;2.08;;
33160;SDS011;19522;45.656;11.302;2023-08-01T03:28:34;4.10;;;2.20;;
33160;SDS011;19522;45.656;11.302;2023-08-01T03:30:59;3.10;;;1.80;;
33160;SDS011;19522;45.656;11.302;2023-08-01T03:33:27;3.13;;;2.08;;
33160;SDS011;19522;45.656;11.302;2023-08-01T03:35:53;2.83;;;1.83;;
33160;SDS011;19522;45.656;11.302;2023-08-01T03:38:18;6.05;;;2.00;;
33160;SDS011;19522;45.656;11.302;2023-08-01T03:40:44;3.40;;;1.80;;
33160;SDS011;19522;45.656;11.302;2023-08-01T03:43:10;3.33;;;1.98;;
33160;SDS011;19522;45.656;11.302;2023-08-01T03:45:35;5.28;;;2.13;;
33160;SDS011;19522;45.656;11.302;2023-08-01T03:48:01;2.58;;;1.80;;
33160;SDS011;19522;45.656;11.302;2023-08-01T03:50:26;4.78;;;2.10;;
33160;SDS011;19522;45.656;11.302;2023-08-01T03:52:52;5.03;;;2.08;;
33160;SDS011;19522;45.656;11.302;2023-08-01T03:55:17;3.13;;;1.98;;
33160;SDS011;19522;45.656;11.302;2023-08-01T03:57:43;3.97;;;1.83;;
33160;SDS011;19522;45.656;11.302;2023-08-01T04:00:09;3.67;;;2.15;;
33160;SDS011;19522;45.656;11.302;2023-08-01T04:02:43;3.70;;;2.15;;
33160;SDS011;19522;45.656;11.302;2023-08-01T04:05:09;4.60;;;1.95;;
33160;SDS011;19522;45.656;11.302;2023-08-01T04:07:37;4.10;;;1.83;;
33160;SDS011;19522;45.656;11.302;2023-08-01T04:10:03;3.05;;;1.70;;
33160;SDS011;19522;45.656;11.302;2023-08-01T04:12:31;4.28;;;1.95;;
33160;SDS011;19522;45.656;11.302;2023-08-01T04:14:57;3.55;;;1.90;;
33160;SDS011;19522;45.656;11.302;2023-08-01T04:17:23;2.90;;;1.88;;
33160;SDS011;19522;45.656;11.302;2023-08-01T04:19:49;2.72;;;1.90;;
33160;SDS011;19522;45.656;11.302;2023-08-01T04:22:14;3.30;;;1.90;;
33160;SDS011;19522;45.656;11.302;2023-08-01T04:24:40;3.83;;;1.90;;
33160;SDS011;19522;45.656;11.302;2023-08-01T04:27:05;2.33;;;1.58;;
33160;SDS011;19522;45.656;11.302;2023-08-01T04:29:31;4.20;;;2.20;;
33160;SDS011;19522;45.656;11.302;2023-08-01T04:31:56;2.58;;;1.80;;
33160;SDS011;19522;45.656;11.302;2023-08-01T04:34:22;3.20;;;2.17;;
33160;SDS011;19522;45.656;11.302;2023-08-01T04:36:48;2.60;;;1.80;;
33160;SDS011;19522;45.656;11.302;2023-08-01T04:39:13;3.85;;;2.15;;
33160;SDS011;19522;45.656;11.302;2023-08-01T04:41:39;4.78;;;2.10;;
33160;SDS011;19522;45.656;11.302;2023-08-01T04:44:04;2.55;;;1.90;;
33160;SDS011;19522;45.656;11.302;2023-08-01T04:46:30;3.53;;;2.22;;
33160;SDS011;19522;45.656;11.302;2023-08-01T04:48:55;3.13;;;2.25;;
33160;SDS011;19522;45.656;11.302;2023-08-01T04:51:21;3.90;;;1.85;;
33160;SDS011;19522;45.656;11.302;2023-08-01T04:53:46;3.67;;;2.10;;
33160;SDS011;19522;45.656;11.302;2023-08-01T04:56:12;3.80;;;2.17;;
33160;SDS011;19522;45.656;11.302;2023-08-01T04:58:37;3.72;;;2.38;;
33160;SDS011;19522;45.656;11.302;2023-08-01T05:01:03;3.42;;;2.00;;
33160;SDS011;19522;45.656;11.302;2023-08-01T05:03:28;3.75;;;2.05;;
33160;SDS011;19522;45.656;11.302;2023-08-01T05:05:54;4.78;;;2.38;;
33160;SDS011;19522;45.656;11.302;2023-08-01T05:08:19;3.15;;;2.00;;
33160;SDS011;19522;45.656;11.302;2023-08-01T05:10:45;4.47;;;2.20;;
33160;SDS011;19522;45.656;11.302;2023-08-01T05:13:10;4.43;;;2.20;;
33160;SDS011;19522;45.656;11.302;2023-08-01T05:15:36;2.88;;;1.92;;
33160;SDS011;19522;45.656;11.302;2023-08-01T05:18:01;5.90;;;2.22;;
33160;SDS011;19522;45.656;11.302;2023-08-01T05:20:27;3.05;;;1.90;;
33160;SDS011;19522;45.656;11.302;2023-08-01T05:22:58;4.63;;;2.38;;
33160;SDS011;19522;45.656;11.302;2023-08-01T05:25:24;6.20;;;2.10;;
33160;SDS011;19522;45.656;11.302;2023-08-01T05:27:50;4.80;;;2.20;;
33160;SDS011;19522;45.656;11.302;2023-08-01T05:30:15;3.30;;;2.15;;
33160;SDS011;19522;45.656;11.302;2023-08-01T05:32:41;7.68;;;2.65;;
33160;SDS011;19522;45.656;11.302;2023-08-01T05:35:08;5.13;;;2.85;;
33160;SDS011;19522;45.656;11.302;2023-08-01T05:37:34;5.65;;;2.40;;
33160;SDS011;19522;45.656;11.302;2023-08-01T05:40:00;6.43;;;2.72;;
33160;SDS011;19522;45.656;11.302;2023-08-01T05:42:27;4.85;;;2.65;;
33160;SDS011;19522;45.656;11.302;2023-08-01T05:44:53;4.90;;;2.92;;
33160;SDS011;19522;45.656;11.302;2023-08-01T05:47:18;3.42;;;2.70;;
33160;SDS011;19522;45.656;11.302;2023-08-01T05:49:44;4.13;;;2.50;;
33160;SDS011;19522;45.656;11.302;2023-08-01T05:52:09;4.60;;;2.30;;
33160;SDS011;19522;45.656;11.302;2023-08-01T05:54:35;3.00;;;2.20;;
33160;SDS011;19522;45.656;11.302;2023-08-01T05:57:00;5.68;;;3.30;;
33160;SDS011;19522;45.656;11.302;2023-08-01T05:59:26;5.20;;;3.15;;
33160;SDS011;19522;45.656;11.302;2023-08-01T06:01:52;6.15;;;3.08;;
33160;SDS011;19522;45.656;11.302;2023-08-01T06:04:17;6.10;;;3.55;;
33160;SDS011;19522;45.656;11.302;2023-08-01T06:06:42;4.93;;;2.92;;
33160;SDS011;19522;45.656;11.302;2023-08-01T06:09:08;5.15;;;3.28;;
33160;SDS011;19522;45.656;11.302;2023-08-01T06:11:33;7.45;;;3.30;;
33160;SDS011;19522;45.656;11.302;2023-08-01T06:13:59;4.95;;;3.05;;
33160;SDS011;19522;45.656;11.302;2023-08-01T06:16:25;5.22;;;3.50;;
33160;SDS011;19522;45.656;11.302;2023-08-01T06:18:51;4.60;;;2.85;;
33160;SDS011;19522;45.656;11.302;2023-08-01T06:21:16;8.13;;;2.92;;
33160;SDS011;19522;45.656;11.302;2023-08-01T06:23:42;4.45;;;3.13;;
33160;SDS011;19522;45.656;11.302;2023-08-01T06:26:07;4.68;;;3.00;;
33160;SDS011;19522;45.656;11.302;2023-08-01T06:28:33;3.85;;;3.08;;
33160;SDS011;19522;45.656;11.302;2023-08-01T06:30:58;5.63;;;3.05;;
33160;SDS011;19522;45.656;11.302;2023-08-01T06:33:24;5.07;;;3.08;;
33160;SDS011;19522;45.656;11.302;2023-08-01T06:35:49;4.78;;;3.20;;
33160;SDS011;19522;45.656;11.302;2023-08-01T06:38:15;13.07;;;4.03;;
33160;SDS011;19522;45.656;11.302;2023-08-01T06:40:40;10.00;;;3.90;;
33160;SDS011;19522;45.656;11.302;2023-08-01T06:43:06;6.43;;;3.33;;
33160;SDS011;19522;45.656;11.302;2023-08-01T06:45:32;10.82;;;4.80;;
33160;SDS011;19522;45.656;11.302;2023-08-01T06:47:57;5.40;;;2.67;;
33160;SDS011;19522;45.656;11.302;2023-08-01T06:50:23;3.65;;;2.78;;
33160;SDS011;19522;45.656;11.302;2023-08-01T06:52:48;3.13;;;2.65;;
33160;SDS011;19522;45.656;11.302;2023-08-01T06:55:14;3.00;;;2.33;;
33160;SDS011;19522;45.656;11.302;2023-08-01T06:57:39;3.88;;;2.60;;
33160;SDS011;19522;45.656;11.302;2023-08-01T07:00:05;6.70;;;2.90;;
33160;SDS011;19522;45.656;11.302;2023-08-01T07:02:31;8.40;;;3.35;;
33160;SDS011;19522;45.656;11.302;2023-08-01T07:04:57;5.82;;;2.95;;
33160;SDS011;19522;45.656;11.302;2023-08-01T07:07:25;6.38;;;3.38;;
33160;SDS011;19522;45.656;11.302;2023-08-01T07:09:51;4.88;;;2.90;;
33160;SDS011;19522;45.656;11.302;2023-08-01T07:12:16;5.40;;;2.72;;
33160;SDS011;19522;45.656;11.302;2023-08-01T07:14:42;3.70;;;2.30;;
33160;SDS011;19522;45.656;11.302;2023-08-01T07:17:07;4.20;;;2.38;;
33160;SDS011;19522;45.656;11.302;2023-08-01T07:19:33;4.70;;;2.70;;
33160;SDS011;19522;45.656;11.302;2023-08-01T07:21:58;4.00;;;2.35;;
33160;SDS011;19522;45.656;11.302;2023-08-01T07:24:24;5.35;;;3.03;;
33160;SDS011;19522;45.656;11.302;2023-08-01T07:26:49;3.42;;;2.50;;
33160;SDS011;19522;45.656;11.302;2023-08-01T07:29:15;5.32;;;2.50;;
33160;SDS011;19522;45.656;11.302;2023-08-01T07:31:41;3.22;;;2.45;;
33160;SDS011;19522;45.656;11.302;2023-08-01T07:34:07;3.13;;;2.38;;
33160;SDS011;19522;45.656;11.302;2023-08-01T07:36:32;5.47;;;2.40;;
33160;SDS011;19522;45.656;11.302;2023-08-01T07:38:58;4.20;;;1.95;;
33160;SDS011;19522;45.656;11.302;2023-08-01T07:41:24;5.32;;;2.80;;
33160;SDS011;19522;45.656;11.302;2023-08-01T07:43:49;4.82;;;2.42;;
33160;SDS011;19522;45.656;11.302;2023-08-01T07:46:15;5.05;;;2.22;;
33160;SDS011;19522;45.656;11.302;2023-08-01T07:48:40;4.40;;;2.42;;
33160;SDS011;19522;45.656;11.302;2023-08-01T07:51:06;3.92;;;2.30;;
33160;SDS011;19522;45.656;11.302;2023-08-01T07:53:33;6.00;;;2.58;;
33160;SDS011;19522;45.656;11.302;2023-08-01T07:55:59;5.15;;;2.85;;
33160;SDS011;19522;45.656;11.302;2023-08-01T07:58:27;3.30;;;2.03;;
33160;SDS011;19522;45.656;11.302;2023-08-01T08:00:53;4.25;;;2.28;;
33160;SDS011;19522;45.656;11.302;2023-08-01T08:03:18;3.65;;;2.35;;
33160;SDS011;19522;45.656;11.302;2023-08-01T08:05:47;4.90;;;2.50;;
33160;SDS011;19522;45.656;11.302;2023-08-01T08:08:13;3.80;;;2.65;;
33160;SDS011;19522;45.656;11.302;2023-08-01T08:10:41;3.70;;;2.20;;
33160;SDS011;19522;45.656;11.302;2023-08-01T08:13:07;4.07;;;2.22;;
33160;SDS011;19522;45.656;11.302;2023-08-01T08:15:32;3.63;;;2.45;;
33160;SDS011;19522;45.656;11.302;2023-08-01T08:18:00;2.53;;;2.17;;
33160;SDS011;19522;45.656;11.302;2023-08-01T08:20:29;3.90;;;2.53;;
33160;SDS011;19522;45.656;11.302;2023-08-01T08:22:54;3.45;;;2.30;;
33160;SDS011;19522;45.656;11.302;2023-08-01T08:25:20;3.47;;;2.47;;
33160;SDS011;19522;45.656;11.302;2023-08-01T08:27:45;3.03;;;2.00;;
33160;SDS011;19522;45.656;11.302;2023-08-01T08:30:11;3.72;;;2.05;;
33160;SDS011;19522;45.656;11.302;2023-08-01T08:32:36;3.85;;;1.70;;
33160;SDS011;19522;45.656;11.302;2023-08-01T08:35:02;3.80;;;1.90;;
33160;SDS011;19522;45.656;11.302;2023-08-01T08:37:28;3.22;;;2.17;;
33160;SDS011;19522;45.656;11.302;2023-08-01T08:39:53;4.05;;;2.20;;
33160;SDS011;19522;45.656;11.302;2023-08-01T08:42:19;3.40;;;2.17;;
33160;SDS011;19522;45.656;11.302;2023-08-01T08:44:49;3.95;;;2.20;;
33160;SDS011;19522;45.656;11.302;2023-08-01T08:47:19;5.40;;;2.15;;
33160;SDS011;19522;45.656;11.302;2023-08-01T08:49:49;3.10;;;2.00;;
33160;SDS011;19522;45.656;11.302;2023-08-01T08:52:15;4.65;;;2.08;;
33160;SDS011;19522;45.656;11.302;2023-08-01T08:54:44;4.65;;;2.22;;
33160;SDS011;19522;45.656;11.302;2023-08-01T08:57:11;5.13;;;1.90;;
33160;SDS011;19522;45.656;11.302;2023-08-01T08:59:38;4.57;;;2.35;;
33160;SDS011;19522;45.656;11.302;2023-08-01T09:02:04;3.17;;;2.22;;
33160;SDS011;19522;45.656;11.302;2023-08-01T09:04:31;3.13;;;1.98;;
33160;SDS011;19522;45.656;11.302;2023-08-01T09:06:58;4.15;;;2.25;;
33160;SDS011;19522;45.656;11.302;2023-08-01T09:09:28;3.17;;;2.25;;
33160;SDS011;19522;45.656;11.302;2023-08-01T09:11:53;3.17;;;2.42;;
33160;SDS011;19522;45.656;11.302;2023-08-01T09:14:22;2.65;;;1.92;;
33160;SDS011;19522;45.656;11.302;2023-08-01T09:16:48;4.20;;;1.88;;
33160;SDS011;19522;45.656;11.302;2023-08-01T09:19:17;4.50;;;1.98;;
33160;SDS011;19522;45.656;11.302;2023-08-01T09:21:43;2.75;;;1.70;;
33160;SDS011;19522;45.656;11.302;2023-08-01T09:26:35;2.97;;;2.15;;
33160;SDS011;19522;45.656;11.302;2023-08-01T09:29:01;4.03;;;2.55;;
33160;SDS011;19522;45.656;11.302;2023-08-01T09:31:30;3.72;;;2.45;;
33160;SDS011;19522;45.656;11.302;2023-08-01T09:33:58;4.70;;;2.05;;
33160;SDS011;19522;45.656;11.302;2023-08-01T09:36:24;4.07;;;2.50;;
33160;SDS011;19522;45.656;11.302;2023-08-01T09:38:50;6.05;;;2.40;;
33160;SDS011;19522;45.656;11.302;2023-08-01T09:41:17;3.20;;;2.15;;
33160;SDS011;19522;45.656;11.302;2023-08-01T09:43:44;3.05;;;2.03;;
33160;SDS011;19522;45.656;11.302;2023-08-01T09:46:14;4.22;;;2.60;;
33160;SDS011;19522;45.656;11.302;2023-08-01T09:48:40;4.07;;;2.40;;
33160;SDS011;19522;45.656;11.302;2023-08-01T09:51:15;3.08;;;2.20;;
33160;SDS011;19522;45.656;11.302;2023-08-01T09:56:15;5.20;;;2.28;;
33160;SDS011;19522;45.656;11.302;2023-08-01T09:58:45;6.10;;;2.92;;
33160;SDS011;19522;45.656;11.302;2023-08-01T10:01:12;3.30;;;2.67;;
33160;SDS011;19522;45.656;11.302;2023-08-01T10:03:40;3.80;;;2.95;;
33160;SDS011;19522;45.656;11.302;2023-08-01T10:06:10;6.05;;;2.50;;
33160;SDS011;19522;45.656;11.302;2023-08-01T10:08:39;5.05;;;3.42;;
33160;SDS011;19522;45.656;11.302;2023-08-01T10:11:05;6.13;;;3.05;;
33160;SDS011;19522;45.656;11.302;2023-08-01T10:13:32;5.28;;;3.33;;
33160;SDS011;19522;45.656;11.302;2023-08-01T10:15:57;4.43;;;3.13;;
33160;SDS011;19522;45.656;11.302;2023-08-01T10:18:24;5.93;;;3.63;;
33160;SDS011;19522;45.656;11.302;2023-08-01T10:20:51;4.53;;;3.10;;
33160;SDS011;19522;45.656;11.302;2023-08-01T10:23:17;5.05;;;3.45;;
33160;SDS011;19522;45.656;11.302;2023-08-01T10:25:44;7.10;;;3.40;;
33160;SDS011;19522;45.656;11.302;2023-08-01T10:28:10;4.43;;;3.42;;
33160;SDS011;19522;45.656;11.302;2023-08-01T10:30:36;6.57;;;3.65;;
33160;SDS011;19522;45.656;11.302;2023-08-01T10:33:01;5.68;;;3.70;;
33160;SDS011;19522;45.656;11.302;2023-08-01T10:35:37;4.47;;;4.00;;
33160;SDS011;19522;45.656;11.302;2023-08-01T10:38:07;5.72;;;4.43;;
33160;SDS011;19522;45.656;11.302;2023-08-01T10:40:37;5.15;;;4.38;;
33160;SDS011;19522;45.656;11.302;2023-08-01T10:43:28;7.75;;;5.65;;
33160;SDS011;19522;45.656;11.302;2023-08-01T10:46:02;6.70;;;4.35;;
33160;SDS011;19522;45.656;11.302;2023-08-01T10:48:28;6.40;;;4.68;;
33160;SDS011;19522;45.656;11.302;2023-08-01T10:50:57;5.68;;;4.38;;
33160;SDS011;19522;45.656;11.302;2023-08-01T10:53:23;7.97;;;4.15;;
33160;SDS011;19522;45.656;11.302;2023-08-01T10:55:48;5.00;;;3.70;;
33160;SDS011;19522;45.656;11.302;2023-08-01T10:58:15;5.50;;;4.00;;
33160;SDS011;19522;45.656;11.302;2023-08-01T11:00:43;6.68;;;4.55;;
33160;SDS011;19522;45.656;11.302;2023-08-01T11:03:09;5.35;;;4.40;;
33160;SDS011;19522;45.656;11.302;2023-08-01T11:05:35;5.72;;;3.55;;
33160;SDS011;19522;45.656;11.302;2023-08-01T11:08:01;5.25;;;3.72;;
33160;SDS011;19522;45.656;11.302;2023-08-01T11:10:31;5.30;;;4.00;;
33160;SDS011;19522;45.656;11.302;2023-08-01T11:12:58;6.25;;;3.78;;
33160;SDS011;19522;45.656;11.302;2023-08-01T11:15:24;6.22;;;3.97;;
33160;SDS011;19522;45.656;11.302;2023-08-01T11:17:51;5.40;;;3.78;;
33160;SDS011;19522;45.656;11.302;2023-08-01T11:20:19;4.00;;;3.40;;
33160;SDS011;19522;45.656;11.302;2023-08-01T11:25:18;6.38;;;4.30;;
33160;SDS011;19522;45.656;11.302;2023-08-01T11:27:43;5.50;;;3.80;;
33160;SDS011;19522;45.656;11.302;2023-08-01T11:30:09;3.83;;;3.40;;
33160;SDS011;19522;45.656;11.302;2023-08-01T11:32:36;5.93;;;3.50;;
33160;SDS011;19522;45.656;11.302;2023-08-01T11:35:02;6.95;;;4.10;;
33160;SDS011;19522;45.656;11.302;2023-08-01T11:37:29;4.82;;;3.28;;
33160;SDS011;19522;45.656;11.302;2023-08-01T11:39:55;4.10;;;3.40;;
33160;SDS011;19522;45.656;11.302;2023-08-01T11:42:23;4.22;;;3.30;;
33160;SDS011;19522;45.656;11.302;2023-08-01T11:44:48;4.97;;;3.53;;
33160;SDS011;19522;45.656;11.302;2023-08-01T11:47:14;5.30;;;3.40;;
33160;SDS011;19522;45.656;11.302;2023-08-01T11:49:48;5.60;;;3.58;;
33160;SDS011;19522;45.656;11.302;2023-08-01T11:52:24;4.78;;;3.50;;
33160;SDS011;19522;45.656;11.302;2023-08-01T11:54:51;4.18;;;3.47;;
33160;SDS011;19522;45.656;11.302;2023-08-01T11:57:22;3.83;;;2.90;;
33160;SDS011;19522;45.656;11.302;2023-08-01T11:59:51;5.30;;;3.30;;
33160;SDS011;19522;45.656;11.302;2023-08-01T12:02:24;4.43;;;3.28;;
33160;SDS011;19522;45.656;11.302;2023-08-01T12:04:51;3.88;;;3.33;;
33160;SDS011;19522;45.656;11.302;2023-08-01T12:07:18;4.13;;;3.40;;
33160;SDS011;19522;45.656;11.302;2023-08-01T12:09:44;4.00;;;3.30;;
33160;SDS011;19522;45.656;11.302;2023-08-01T12:12:19;9.13;;;3.90;;
33160;SDS011;19522;45.656;11.302;2023-08-01T12:14:45;4.90;;;3.15;;
33160;SDS011;19522;45.656;11.302;2023-08-01T12:17:10;6.32;;;4.30;;
33160;SDS011;19522;45.656;11.302;2023-08-01T12:19:36;3.95;;;3.47;;
33160;SDS011;19522;45.656;11.302;2023-08-01T12:22:01;4.30;;;3.60;;
33160;SDS011;19522;45.656;11.302;2023-08-01T12:24:27;4.80;;;3.38;;
33160;SDS011;19522;45.656;11.302;2023-08-01T12:26:52;5.40;;;3.60;;
33160;SDS011;19522;45.656;11.302;2023-08-01T12:29:18;4.13;;;3.05;;
33160;SDS011;19522;45.656;11.302;2023-08-01T12:31:43;4.25;;;3.08;;
33160;SDS011;19522;45.656;11.302;2023-08-01T12:34:12;4.72;;;3.28;;
33160;SDS011;19522;45.656;11.302;2023-08-01T12:36:38;5.38;;;4.22;;
33160;SDS011;19522;45.656;11.302;2023-08-01T12:39:04;6.38;;;4.88;;
33160;SDS011;19522;45.656;11.302;2023-08-01T12:41:35;7.43;;;3.85;;
33160;SDS011;19522;45.656;11.302;2023-08-01T12:44:02;4.50;;;3.67;;
33160;SDS011;19522;45.656;11.302;2023-08-01T12:46:28;5.38;;;3.97;;
33160;SDS011;19522;45.656;11.302;2023-08-01T12:48:53;5.10;;;4.28;;
33160;SDS011;19522;45.656;11.302;2023-08-01T12:51:19;5.07;;;4.00;;
33160;SDS011;19522;45.656;11.302;2023-08-01T12:53:44;6.35;;;3.78;;
33160;SDS011;19522;45.656;11.302;2023-08-01T12:56:10;4.95;;;3.45;;
33160;SDS011;19522;45.656;11.302;2023-08-01T12:58:36;4.85;;;3.53;;
33160;SDS011;19522;45.656;11.302;2023-08-01T13:01:05;5.40;;;3.88;;
33160;SDS011;19522;45.656;11.302;2023-08-01T13:03:31;8.25;;;4.07;;
33160;SDS011;19522;45.656;11.302;2023-08-01T13:05:57;5.97;;;3.80;;
33160;SDS011;19522;45.656;11.302;2023-08-01T13:08:23;6.38;;;4.15;;
33160;SDS011;19522;45.656;11.302;2023-08-01T13:10:49;8.25;;;4.45;;
33160;SDS011;19522;45.656;11.302;2023-08-01T13:13:15;6.05;;;4.68;;
33160;SDS011;19522;45.656;11.302;2023-08-01T13:15:41;6.18;;;4.40;;
33160;SDS011;19522;45.656;11.302;2023-08-01T13:18:07;7.35;;;4.40;;
33160;SDS011;19522;45.656;11.302;2023-08-01T13:20:32;6.45;;;3.72;;
33160;SDS011;19522;45.656;11.302;2023-08-01T13:22:58;4.75;;;3.40;;
33160;SDS011;19522;45.656;11.302;2023-08-01T13:25:24;4.93;;;3.70;;
33160;SDS011;19522;45.656;11.302;2023-08-01T13:27:49;5.90;;;4.65;;
33160;SDS011;19522;45.656;11.302;2023-08-01T13:30:15;4.63;;;3.80;;
33160;SDS011;19522;45.656;11.302;2023-08-01T13:32:42;6.15;;;4.50;;
33160;SDS011;19522;45.656;11.302;2023-08-01T13:35:08;7.25;;;4.13;;
33160;SDS011;19522;45.656;11.302;2023-08-01T13:37:34;7.03;;;3.95;;
33160;SDS011;19522;45.656;11.302;2023-08-01T13:40:00;4.80;;;3.53;;
33160;SDS011;19522;45.656;11.302;2023-08-01T13:42:25;4.40;;;3.65;;
33160;SDS011;19522;45.656;11.302;2023-08-01T13:44:53;4.28;;;3.70;;
33160;SDS011;19522;45.656;11.302;2023-08-01T13:47:19;4.53;;;3.40;;
33160;SDS011;19522;45.656;11.302;2023-08-01T13:49:44;4.38;;;3.88;;
33160;SDS011;19522;45.656;11.302;2023-08-01T13:52:10;6.80;;;3.85;;
33160;SDS011;19522;45.656;11.302;2023-08-01T13:54:35;5.13;;;3.58;;
33160;SDS011;19522;45.656;11.302;2023-08-01T13:57:01;5.90;;;3.90;;
33160;SDS011;19522;45.656;11.302;2023-08-01T13:59:26;6.32;;;3.60;;
33160;SDS011;19522;45.656;11.302;2023-08-01T14:01:52;4.95;;;3.80;;
33160;SDS011;19522;45.656;11.302;2023-08-01T14:04:18;6.38;;;3.83;;
33160;SDS011;19522;45.656;11.302;2023-08-01T14:06:43;5.15;;;3.70;;
33160;SDS011;19522;45.656;11.302;2023-08-01T14:09:09;6.65;;;4.10;;
33160;SDS011;19522;45.656;11.302;2023-08-01T14:11:35;5.70;;;3.70;;
33160;SDS011;19522;45.656;11.302;2023-08-01T14:14:01;5.70;;;3.90;;
33160;SDS011;19522;45.656;11.302;2023-08-01T14:16:26;5.65;;;3.83;;
33160;SDS011;19522;45.656;11.302;2023-08-01T14:18:52;4.90;;;4.07;;
33160;SDS011;19522;45.656;11.302;2023-08-01T14:21:18;5.60;;;4.05;;
33160;SDS011;19522;45.656;11.302;2023-08-01T14:23:43;5.55;;;4.00;;
33160;SDS011;19522;45.656;11.302;2023-08-01T14:26:09;5.60;;;4.03;;
33160;SDS011;19522;45.656;11.302;2023-08-01T14:28:34;5.72;;;4.07;;
33160;SDS011;19522;45.656;11.302;2023-08-01T14:31:00;6.20;;;4.18;;
33160;SDS011;19522;45.656;11.302;2023-08-01T14:33:27;5.70;;;4.03;;
33160;SDS011;19522;45.656;11.302;2023-08-01T14:35:53;5.93;;;3.90;;